Weather at Mountain View Airport

Public forecast

Using degrees Fahrenheit for public forecast. Weather courtesy of forecast.io.

Closest aviation weather report (METAR) to Mountain View Airport

Closest report is West Plains Municipal Airport, 11.3 nm (21.0 km) SW. Retrieved 2022/08/09 16:53 UTC (46 minutes ago):

KUNO 091653Z AUTO 10SM CLR 30/21 A3013 RMK AO2 SLP189 T03000206

Closest aviation forecast (TAF) to Mountain View Airport

Closest forecast is Ozark Regional Airport, 52.2 nm (96.7 km) SW. Retrieved 2022/08/09 12:36 UTC (5 hours ago):

TAF KBPK 091136Z 0912/1012 VRB03KT P6SM VCSH SCT080 BKN120 TEMPO 0912/0916 5SM -TSRA BR BKN035CB FM091600 23006KT P6SM VCTS SCT050CB OVC080 TEMPO 0917/0921 4SM TSRA BR OVC025CB FM092300 VRB03KT P6SM OVC120 FM100800 VRB02KT P6SM VCSH SCT005 BKN040 OVC120